sensor_id;sensor_type;location;lat;lon;timestamp;P1;durP1;ratioP1;P2;durP2;ratioP2
57790;SDS011;43621;51.798;21.588;2023-05-23T00:02:20;9.40;;;6.90;;
57790;SDS011;43621;51.798;21.588;2023-05-23T00:06:21;10.70;;;5.90;;
57790;SDS011;43621;51.798;21.588;2023-05-23T00:10:23;9.60;;;6.00;;
57790;SDS011;43621;51.798;21.588;2023-05-23T00:14:25;10.50;;;5.80;;
57790;SDS011;43621;51.798;21.588;2023-05-23T00:18:27;13.30;;;6.10;;
57790;SDS011;43621;51.798;21.588;2023-05-23T00:22:31;10.60;;;5.90;;
57790;SDS011;43621;51.798;21.588;2023-05-23T00:26:32;7.30;;;5.20;;
57790;SDS011;43621;51.798;21.588;2023-05-23T00:30:34;9.60;;;5.50;;
57790;SDS011;43621;51.798;21.588;2023-05-23T00:34:36;11.40;;;5.80;;
57790;SDS011;43621;51.798;21.588;2023-05-23T00:38:38;9.70;;;6.20;;
57790;SDS011;43621;51.798;21.588;2023-05-23T00:42:40;9.40;;;6.20;;
57790;SDS011;43621;51.798;21.588;2023-05-23T00:46:42;10.90;;;5.70;;
57790;SDS011;43621;51.798;21.588;2023-05-23T00:50:47;12.00;;;5.70;;
57790;SDS011;43621;51.798;21.588;2023-05-23T00:54:49;11.40;;;6.40;;
57790;SDS011;43621;51.798;21.588;2023-05-23T00:58:52;13.40;;;6.30;;
57790;SDS011;43621;51.798;21.588;2023-05-23T01:02:55;11.20;;;6.20;;
57790;SDS011;43621;51.798;21.588;2023-05-23T01:06:56;12.40;;;6.40;;
57790;SDS011;43621;51.798;21.588;2023-05-23T01:10:59;11.40;;;6.60;;
57790;SDS011;43621;51.798;21.588;2023-05-23T01:15:17;8.70;;;5.80;;
57790;SDS011;43621;51.798;21.588;2023-05-23T01:28:38;8.70;;;5.60;;
57790;SDS011;43621;51.798;21.588;2023-05-23T01:32:43;7.60;;;5.70;;
57790;SDS011;43621;51.798;21.588;2023-05-23T01:36:48;10.70;;;5.50;;
57790;SDS011;43621;51.798;21.588;2023-05-23T01:40:55;11.10;;;5.80;;
57790;SDS011;43621;51.798;21.588;2023-05-23T01:44:57;12.20;;;5.90;;
57790;SDS011;43621;51.798;21.588;2023-05-23T01:49:00;10.20;;;6.40;;
57790;SDS011;43621;51.798;21.588;2023-05-23T01:53:04;8.10;;;5.40;;
57790;SDS011;43621;51.798;21.588;2023-05-23T01:57:07;10.90;;;5.60;;
57790;SDS011;43621;51.798;21.588;2023-05-23T02:01:10;8.90;;;4.90;;
57790;SDS011;43621;51.798;21.588;2023-05-23T02:05:12;18.10;;;7.10;;
57790;SDS011;43621;51.798;21.588;2023-05-23T02:09:14;9.80;;;5.80;;
57790;SDS011;43621;51.798;21.588;2023-05-23T02:13:16;9.50;;;5.80;;
57790;SDS011;43621;51.798;21.588;2023-05-23T02:17:19;11.90;;;5.80;;
57790;SDS011;43621;51.798;21.588;2023-05-23T02:21:22;12.50;;;6.10;;
57790;SDS011;43621;51.798;21.588;2023-05-23T02:25:24;11.10;;;5.40;;
57790;SDS011;43621;51.798;21.588;2023-05-23T02:29:27;10.40;;;6.10;;
57790;SDS011;43621;51.798;21.588;2023-05-23T02:33:28;12.40;;;6.20;;
57790;SDS011;43621;51.798;21.588;2023-05-23T02:37:30;10.20;;;5.90;;
57790;SDS011;43621;51.798;21.588;2023-05-23T02:41:32;8.30;;;5.90;;
57790;SDS011;43621;51.798;21.588;2023-05-23T02:45:34;10.90;;;5.70;;
57790;SDS011;43621;51.798;21.588;2023-05-23T02:49:35;8.70;;;5.70;;
57790;SDS011;43621;51.798;21.588;2023-05-23T02:53:37;8.20;;;5.70;;
57790;SDS011;43621;51.798;21.588;2023-05-23T02:57:39;10.60;;;6.00;;
57790;SDS011;43621;51.798;21.588;2023-05-23T03:01:41;13.70;;;5.70;;
57790;SDS011;43621;51.798;21.588;2023-05-23T03:05:43;9.50;;;5.80;;
57790;SDS011;43621;51.798;21.588;2023-05-23T03:09:45;24.30;;;6.60;;
57790;SDS011;43621;51.798;21.588;2023-05-23T03:13:46;9.00;;;6.00;;
57790;SDS011;43621;51.798;21.588;2023-05-23T03:17:48;9.50;;;6.10;;
57790;SDS011;43621;51.798;21.588;2023-05-23T03:21:50;18.70;;;7.10;;
57790;SDS011;43621;51.798;21.588;2023-05-23T03:25:52;14.40;;;6.70;;
57790;SDS011;43621;51.798;21.588;2023-05-23T03:29:54;12.30;;;6.40;;
57790;SDS011;43621;51.798;21.588;2023-05-23T03:33:56;16.40;;;6.60;;
57790;SDS011;43621;51.798;21.588;2023-05-23T03:37:58;10.50;;;5.50;;
57790;SDS011;43621;51.798;21.588;2023-05-23T03:41:59;11.80;;;6.00;;
57790;SDS011;43621;51.798;21.588;2023-05-23T03:46:01;10.90;;;5.50;;
57790;SDS011;43621;51.798;21.588;2023-05-23T03:50:04;11.40;;;5.10;;
57790;SDS011;43621;51.798;21.588;2023-05-23T03:54:06;9.80;;;6.20;;
57790;SDS011;43621;51.798;21.588;2023-05-23T03:58:08;9.50;;;7.10;;
57790;SDS011;43621;51.798;21.588;2023-05-23T04:02:10;10.50;;;7.90;;
57790;SDS011;43621;51.798;21.588;2023-05-23T04:06:12;10.40;;;7.50;;
57790;SDS011;43621;51.798;21.588;2023-05-23T04:10:14;12.10;;;6.60;;
57790;SDS011;43621;51.798;21.588;2023-05-23T04:14:15;13.60;;;6.90;;
57790;SDS011;43621;51.798;21.588;2023-05-23T04:18:18;16.70;;;7.60;;
57790;SDS011;43621;51.798;21.588;2023-05-23T04:22:20;15.60;;;11.10;;
57790;SDS011;43621;51.798;21.588;2023-05-23T04:26:22;9.60;;;6.20;;
57790;SDS011;43621;51.798;21.588;2023-05-23T04:30:24;13.60;;;7.20;;
57790;SDS011;43621;51.798;21.588;2023-05-23T04:34:25;17.20;;;8.60;;
57790;SDS011;43621;51.798;21.588;2023-05-23T04:38:27;8.90;;;6.90;;
57790;SDS011;43621;51.798;21.588;2023-05-23T04:42:29;8.30;;;5.50;;
57790;SDS011;43621;51.798;21.588;2023-05-23T04:46:31;9.10;;;5.70;;
57790;SDS011;43621;51.798;21.588;2023-05-23T04:50:33;10.30;;;5.90;;
57790;SDS011;43621;51.798;21.588;2023-05-23T04:54:36;8.40;;;5.40;;
57790;SDS011;43621;51.798;21.588;2023-05-23T04:58:37;8.60;;;5.40;;
57790;SDS011;43621;51.798;21.588;2023-05-23T05:02:42;12.80;;;6.30;;
57790;SDS011;43621;51.798;21.588;2023-05-23T05:06:44;12.50;;;5.50;;
57790;SDS011;43621;51.798;21.588;2023-05-23T05:10:48;11.90;;;5.20;;
57790;SDS011;43621;51.798;21.588;2023-05-23T05:14:50;7.30;;;4.80;;
57790;SDS011;43621;51.798;21.588;2023-05-23T05:18:52;11.20;;;5.50;;
57790;SDS011;43621;51.798;21.588;2023-05-23T05:22:54;9.60;;;5.30;;
57790;SDS011;43621;51.798;21.588;2023-05-23T05:26:58;15.20;;;6.40;;
57790;SDS011;43621;51.798;21.588;2023-05-23T05:31:00;9.40;;;5.20;;
57790;SDS011;43621;51.798;21.588;2023-05-23T05:35:05;7.50;;;4.80;;
57790;SDS011;43621;51.798;21.588;2023-05-23T05:39:09;13.70;;;5.40;;
57790;SDS011;43621;51.798;21.588;2023-05-23T05:43:11;9.90;;;4.90;;
57790;SDS011;43621;51.798;21.588;2023-05-23T05:47:13;9.40;;;4.80;;
57790;SDS011;43621;51.798;21.588;2023-05-23T05:51:15;10.60;;;4.90;;
57790;SDS011;43621;51.798;21.588;2023-05-23T05:55:18;9.40;;;4.70;;
57790;SDS011;43621;51.798;21.588;2023-05-23T05:59:19;9.10;;;4.90;;
57790;SDS011;43621;51.798;21.588;2023-05-23T06:03:21;9.20;;;4.10;;
57790;SDS011;43621;51.798;21.588;2023-05-23T06:07:24;5.90;;;3.60;;
57790;SDS011;43621;51.798;21.588;2023-05-23T06:11:26;5.70;;;3.90;;
57790;SDS011;43621;51.798;21.588;2023-05-23T06:15:28;8.30;;;4.00;;
57790;SDS011;43621;51.798;21.588;2023-05-23T06:19:31;4.50;;;3.00;;
57790;SDS011;43621;51.798;21.588;2023-05-23T06:23:33;6.20;;;3.50;;
57790;SDS011;43621;51.798;21.588;2023-05-23T06:27:35;14.80;;;3.60;;
57790;SDS011;43621;51.798;21.588;2023-05-23T06:31:38;6.70;;;3.20;;
57790;SDS011;43621;51.798;21.588;2023-05-23T06:35:40;4.10;;;2.70;;
57790;SDS011;43621;51.798;21.588;2023-05-23T06:39:42;6.30;;;3.20;;
57790;SDS011;43621;51.798;21.588;2023-05-23T06:43:44;5.70;;;3.50;;
57790;SDS011;43621;51.798;21.588;2023-05-23T06:47:46;3.20;;;2.70;;
57790;SDS011;43621;51.798;21.588;2023-05-23T06:51:48;4.20;;;3.10;;
57790;SDS011;43621;51.798;21.588;2023-05-23T06:55:50;5.80;;;3.10;;
57790;SDS011;43621;51.798;21.588;2023-05-23T06:59:52;4.20;;;2.60;;
57790;SDS011;43621;51.798;21.588;2023-05-23T07:03:54;4.10;;;2.80;;
57790;SDS011;43621;51.798;21.588;2023-05-23T07:07:56;4.00;;;2.70;;
57790;SDS011;43621;51.798;21.588;2023-05-23T07:11:58;6.40;;;2.80;;
57790;SDS011;43621;51.798;21.588;2023-05-23T07:16:00;5.80;;;3.00;;
57790;SDS011;43621;51.798;21.588;2023-05-23T07:20:03;6.90;;;2.60;;
57790;SDS011;43621;51.798;21.588;2023-05-23T07:24:05;3.80;;;2.40;;
57790;SDS011;43621;51.798;21.588;2023-05-23T07:28:07;8.30;;;3.20;;
57790;SDS011;43621;51.798;21.588;2023-05-23T07:32:09;4.60;;;2.80;;
57790;SDS011;43621;51.798;21.588;2023-05-23T07:36:11;4.10;;;2.50;;
57790;SDS011;43621;51.798;21.588;2023-05-23T07:40:13;6.60;;;3.30;;
57790;SDS011;43621;51.798;21.588;2023-05-23T07:44:15;5.60;;;2.80;;
57790;SDS011;43621;51.798;21.588;2023-05-23T07:48:19;4.90;;;2.70;;
57790;SDS011;43621;51.798;21.588;2023-05-23T07:52:21;4.40;;;2.80;;
57790;SDS011;43621;51.798;21.588;2023-05-23T07:56:22;4.30;;;2.70;;
57790;SDS011;43621;51.798;21.588;2023-05-23T08:00:24;3.20;;;2.90;;
57790;SDS011;43621;51.798;21.588;2023-05-23T08:04:27;16.10;;;3.90;;
57790;SDS011;43621;51.798;21.588;2023-05-23T08:08:29;3.90;;;3.50;;
57790;SDS011;43621;51.798;21.588;2023-05-23T08:12:31;5.00;;;3.50;;
57790;SDS011;43621;51.798;21.588;2023-05-23T08:16:33;7.60;;;3.90;;
57790;SDS011;43621;51.798;21.588;2023-05-23T08:20:35;5.00;;;4.50;;
57790;SDS011;43621;51.798;21.588;2023-05-23T08:24:37;5.00;;;4.60;;
57790;SDS011;43621;51.798;21.588;2023-05-23T08:28:39;7.50;;;5.30;;
57790;SDS011;43621;51.798;21.588;2023-05-23T08:32:41;6.60;;;6.00;;
57790;SDS011;43621;51.798;21.588;2023-05-23T08:36:43;6.10;;;5.70;;
57790;SDS011;43621;51.798;21.588;2023-05-23T08:40:47;6.20;;;5.70;;
57790;SDS011;43621;51.798;21.588;2023-05-23T08:44:54;9.10;;;6.40;;
57790;SDS011;43621;51.798;21.588;2023-05-23T08:48:56;6.80;;;6.20;;
57790;SDS011;43621;51.798;21.588;2023-05-23T08:52:59;7.00;;;6.50;;
57790;SDS011;43621;51.798;21.588;2023-05-23T08:57:02;7.40;;;6.90;;
57790;SDS011;43621;51.798;21.588;2023-05-23T09:01:04;7.60;;;7.10;;
57790;SDS011;43621;51.798;21.588;2023-05-23T09:05:06;7.50;;;7.00;;
57790;SDS011;43621;51.798;21.588;2023-05-23T09:09:10;7.60;;;7.20;;
57790;SDS011;43621;51.798;21.588;2023-05-23T09:13:11;9.00;;;8.40;;
57790;SDS011;43621;51.798;21.588;2023-05-23T09:17:19;8.40;;;7.80;;
57790;SDS011;43621;51.798;21.588;2023-05-23T09:21:23;8.50;;;7.80;;
57790;SDS011;43621;51.798;21.588;2023-05-23T09:25:25;8.10;;;7.50;;
57790;SDS011;43621;51.798;21.588;2023-05-23T09:29:27;7.80;;;7.10;;
57790;SDS011;43621;51.798;21.588;2023-05-23T09:37:45;7.40;;;7.00;;
57790;SDS011;43621;51.798;21.588;2023-05-23T09:41:47;8.20;;;7.60;;
57790;SDS011;43621;51.798;21.588;2023-05-23T09:45:51;8.60;;;8.00;;
57790;SDS011;43621;51.798;21.588;2023-05-23T09:49:54;9.30;;;8.50;;
57790;SDS011;43621;51.798;21.588;2023-05-23T09:53:57;8.40;;;7.90;;
57790;SDS011;43621;51.798;21.588;2023-05-23T09:57:59;8.00;;;7.60;;
57790;SDS011;43621;51.798;21.588;2023-05-23T10:02:02;9.10;;;8.50;;
57790;SDS011;43621;51.798;21.588;2023-05-23T10:06:21;9.20;;;8.50;;
57790;SDS011;43621;51.798;21.588;2023-05-23T10:10:29;9.00;;;8.30;;
57790;SDS011;43621;51.798;21.588;2023-05-23T10:14:34;8.40;;;7.70;;
57790;SDS011;43621;51.798;21.588;2023-05-23T10:18:44;8.60;;;8.00;;
57790;SDS011;43621;51.798;21.588;2023-05-23T10:22:49;8.20;;;7.60;;
57790;SDS011;43621;51.798;21.588;2023-05-23T10:26:52;7.80;;;7.20;;
57790;SDS011;43621;51.798;21.588;2023-05-23T10:30:55;8.50;;;7.70;;
57790;SDS011;43621;51.798;21.588;2023-05-23T10:34:58;7.70;;;7.30;;
57790;SDS011;43621;51.798;21.588;2023-05-23T10:39:11;6.80;;;6.20;;
57790;SDS011;43621;51.798;21.588;2023-05-23T10:47:40;5.30;;;4.10;;
57790;SDS011;43621;51.798;21.588;2023-05-23T10:51:42;4.50;;;4.10;;
57790;SDS011;43621;51.798;21.588;2023-05-23T10:55:46;6.40;;;4.50;;
57790;SDS011;43621;51.798;21.588;2023-05-23T10:59:49;4.60;;;4.00;;
57790;SDS011;43621;51.798;21.588;2023-05-23T11:03:52;6.10;;;3.30;;
57790;SDS011;43621;51.798;21.588;2023-05-23T11:12:14;4.00;;;3.10;;
57790;SDS011;43621;51.798;21.588;2023-05-23T11:16:23;6.80;;;3.10;;
57790;SDS011;43621;51.798;21.588;2023-05-23T11:20:25;6.60;;;3.20;;
57790;SDS011;43621;51.798;21.588;2023-05-23T11:28:55;6.30;;;3.60;;
57790;SDS011;43621;51.798;21.588;2023-05-23T11:32:59;9.00;;;3.60;;
57790;SDS011;43621;51.798;21.588;2023-05-23T11:37:01;5.90;;;3.60;;
57790;SDS011;43621;51.798;21.588;2023-05-23T11:41:03;7.70;;;4.00;;
57790;SDS011;43621;51.798;21.588;2023-05-23T11:45:07;4.80;;;3.70;;
57790;SDS011;43621;51.798;21.588;2023-05-23T11:49:10;5.20;;;3.80;;
57790;SDS011;43621;51.798;21.588;2023-05-23T11:53:13;10.60;;;5.10;;
57790;SDS011;43621;51.798;21.588;2023-05-23T11:57:17;5.40;;;3.70;;
57790;SDS011;43621;51.798;21.588;2023-05-23T12:01:19;3.80;;;2.80;;
57790;SDS011;43621;51.798;21.588;2023-05-23T12:05:21;5.60;;;3.90;;
57790;SDS011;43621;51.798;21.588;2023-05-23T12:09:23;7.00;;;3.50;;
57790;SDS011;43621;51.798;21.588;2023-05-23T12:13:29;6.20;;;3.80;;
57790;SDS011;43621;51.798;21.588;2023-05-23T12:17:31;5.60;;;3.60;;
57790;SDS011;43621;51.798;21.588;2023-05-23T12:21:43;5.00;;;3.90;;
57790;SDS011;43621;51.798;21.588;2023-05-23T12:25:49;6.00;;;4.20;;
57790;SDS011;43621;51.798;21.588;2023-05-23T12:30:07;6.60;;;4.10;;
57790;SDS011;43621;51.798;21.588;2023-05-23T12:34:11;6.80;;;4.20;;
57790;SDS011;43621;51.798;21.588;2023-05-23T12:38:13;7.20;;;4.60;;
57790;SDS011;43621;51.798;21.588;2023-05-23T12:42:17;7.10;;;4.00;;
57790;SDS011;43621;51.798;21.588;2023-05-23T12:46:19;5.10;;;3.90;;
57790;SDS011;43621;51.798;21.588;2023-05-23T12:50:22;6.80;;;4.20;;
57790;SDS011;43621;51.798;21.588;2023-05-23T12:54:24;6.80;;;4.10;;
57790;SDS011;43621;51.798;21.588;2023-05-23T12:58:25;4.60;;;3.70;;
57790;SDS011;43621;51.798;21.588;2023-05-23T13:02:27;8.30;;;4.00;;
57790;SDS011;43621;51.798;21.588;2023-05-23T13:06:29;7.60;;;4.40;;
57790;SDS011;43621;51.798;21.588;2023-05-23T13:10:31;6.60;;;3.80;;
57790;SDS011;43621;51.798;21.588;2023-05-23T13:14:33;8.10;;;4.80;;
57790;SDS011;43621;51.798;21.588;2023-05-23T13:18:35;4.80;;;3.80;;
57790;SDS011;43621;51.798;21.588;2023-05-23T13:22:37;6.50;;;3.90;;
57790;SDS011;43621;51.798;21.588;2023-05-23T13:26:38;9.30;;;4.60;;
57790;SDS011;43621;51.798;21.588;2023-05-23T13:30:40;7.20;;;3.90;;
57790;SDS011;43621;51.798;21.588;2023-05-23T13:34:42;7.60;;;4.10;;
57790;SDS011;43621;51.798;21.588;2023-05-23T13:38:44;9.10;;;3.90;;
57790;SDS011;43621;51.798;21.588;2023-05-23T13:42:46;6.70;;;4.10;;
57790;SDS011;43621;51.798;21.588;2023-05-23T13:46:51;8.30;;;4.60;;
57790;SDS011;43621;51.798;21.588;2023-05-23T13:50:53;6.20;;;4.50;;
57790;SDS011;43621;51.798;21.588;2023-05-23T13:54:56;7.30;;;4.30;;
57790;SDS011;43621;51.798;21.588;2023-05-23T13:59:00;7.70;;;4.30;;
57790;SDS011;43621;51.798;21.588;2023-05-23T14:03:02;11.40;;;4.40;;
57790;SDS011;43621;51.798;21.588;2023-05-23T14:07:04;8.60;;;4.00;;
57790;SDS011;43621;51.798;21.588;2023-05-23T14:11:06;6.40;;;4.50;;
57790;SDS011;43621;51.798;21.588;2023-05-23T14:15:08;8.80;;;3.80;;
57790;SDS011;43621;51.798;21.588;2023-05-23T14:19:11;6.70;;;4.00;;
57790;SDS011;43621;51.798;21.588;2023-05-23T14:23:13;8.40;;;4.00;;
57790;SDS011;43621;51.798;21.588;2023-05-23T14:27:15;7.00;;;4.00;;
57790;SDS011;43621;51.798;21.588;2023-05-23T14:31:16;7.50;;;4.20;;
57790;SDS011;43621;51.798;21.588;2023-05-23T14:35:18;5.30;;;3.80;;
57790;SDS011;43621;51.798;21.588;2023-05-23T14:39:22;5.50;;;3.90;;
57790;SDS011;43621;51.798;21.588;2023-05-23T14:43:25;7.10;;;3.40;;
57790;SDS011;43621;51.798;21.588;2023-05-23T14:47:27;5.30;;;4.00;;
57790;SDS011;43621;51.798;21.588;2023-05-23T14:51:29;6.80;;;3.80;;
57790;SDS011;43621;51.798;21.588;2023-05-23T14:55:31;7.20;;;3.50;;
57790;SDS011;43621;51.798;21.588;2023-05-23T14:59:32;5.30;;;3.20;;
57790;SDS011;43621;51.798;21.588;2023-05-23T15:03:34;9.00;;;3.60;;
57790;SDS011;43621;51.798;21.588;2023-05-23T15:07:36;5.40;;;3.70;;
57790;SDS011;43621;51.798;21.588;2023-05-23T15:11:39;7.90;;;3.80;;
57790;SDS011;43621;51.798;21.588;2023-05-23T15:15:42;7.30;;;3.10;;
57790;SDS011;43621;51.798;21.588;2023-05-23T15:19:44;5.90;;;3.60;;
57790;SDS011;43621;51.798;21.588;2023-05-23T15:23:47;4.50;;;3.10;;
57790;SDS011;43621;51.798;21.588;2023-05-23T15:27:48;6.60;;;3.20;;
57790;SDS011;43621;51.798;21.588;2023-05-23T15:31:50;12.20;;;4.00;;
57790;SDS011;43621;51.798;21.588;2023-05-23T15:35:53;4.60;;;2.70;;
57790;SDS011;43621;51.798;21.588;2023-05-23T15:39:56;8.60;;;3.20;;
57790;SDS011;43621;51.798;21.588;2023-05-23T15:43:58;7.40;;;3.40;;
57790;SDS011;43621;51.798;21.588;2023-05-23T15:47:59;6.50;;;2.80;;
57790;SDS011;43621;51.798;21.588;2023-05-23T15:52:01;6.90;;;3.10;;
57790;SDS011;43621;51.798;21.588;2023-05-23T15:56:03;7.70;;;3.10;;
57790;SDS011;43621;51.798;21.588;2023-05-23T16:00:05;5.10;;;3.00;;
57790;SDS011;43621;51.798;21.588;2023-05-23T16:04:10;6.40;;;2.90;;
57790;SDS011;43621;51.798;21.588;2023-05-23T16:08:12;6.50;;;3.50;;
57790;SDS011;43621;51.798;21.588;2023-05-23T16:12:14;6.20;;;3.20;;
57790;SDS011;43621;51.798;21.588;2023-05-23T16:16:15;11.80;;;3.90;;
57790;SDS011;43621;51.798;21.588;2023-05-23T16:20:17;4.90;;;2.90;;
57790;SDS011;43621;51.798;21.588;2023-05-23T16:24:19;11.90;;;4.20;;
57790;SDS011;43621;51.798;21.588;2023-05-23T16:28:23;6.70;;;4.10;;
57790;SDS011;43621;51.798;21.588;2023-05-23T16:32:27;9.80;;;3.30;;
57790;SDS011;43621;51.798;21.588;2023-05-23T16:36:29;12.30;;;4.30;;
57790;SDS011;43621;51.798;21.588;2023-05-23T16:40:31;8.60;;;4.00;;
57790;SDS011;43621;51.798;21.588;2023-05-23T16:44:33;9.50;;;3.20;;
57790;SDS011;43621;51.798;21.588;2023-05-23T16:48:35;6.00;;;3.60;;
57790;SDS011;43621;51.798;21.588;2023-05-23T16:52:36;10.50;;;3.40;;
57790;SDS011;43621;51.798;21.588;2023-05-23T16:56:39;6.90;;;3.70;;
57790;SDS011;43621;51.798;21.588;2023-05-23T17:00:41;6.90;;;3.60;;
57790;SDS011;43621;51.798;21.588;2023-05-23T17:04:43;6.80;;;3.50;;
57790;SDS011;43621;51.798;21.588;2023-05-23T17:08:45;9.00;;;4.20;;
57790;SDS011;43621;51.798;21.588;2023-05-23T17:12:47;10.50;;;3.90;;
57790;SDS011;43621;51.798;21.588;2023-05-23T17:16:48;8.30;;;3.80;;
57790;SDS011;43621;51.798;21.588;2023-05-23T17:20:50;8.60;;;3.60;;
57790;SDS011;43621;51.798;21.588;2023-05-23T17:24:52;17.70;;;4.90;;
57790;SDS011;43621;51.798;21.588;2023-05-23T17:28:54;25.30;;;19.20;;
57790;SDS011;43621;51.798;21.588;2023-05-23T17:32:56;25.40;;;17.30;;
57790;SDS011;43621;51.798;21.588;2023-05-23T17:36:58;11.50;;;8.00;;
57790;SDS011;43621;51.798;21.588;2023-05-23T17:41:00;13.30;;;6.50;;
57790;SDS011;43621;51.798;21.588;2023-05-23T17:45:01;16.20;;;8.70;;
57790;SDS011;43621;51.798;21.588;2023-05-23T17:49:04;12.50;;;7.90;;
57790;SDS011;43621;51.798;21.588;2023-05-23T17:53:06;10.50;;;6.40;;
57790;SDS011;43621;51.798;21.588;2023-05-23T17:57:08;8.30;;;5.30;;
57790;SDS011;43621;51.798;21.588;2023-05-23T18:01:10;8.50;;;5.20;;
57790;SDS011;43621;51.798;21.588;2023-05-23T18:05:12;13.10;;;4.70;;
57790;SDS011;43621;51.798;21.588;2023-05-23T18:09:13;9.10;;;4.80;;
57790;SDS011;43621;51.798;21.588;2023-05-23T18:13:15;8.60;;;4.60;;
57790;SDS011;43621;51.798;21.588;2023-05-23T18:17:17;10.40;;;4.70;;
57790;SDS011;43621;51.798;21.588;2023-05-23T18:21:20;21.00;;;10.90;;
57790;SDS011;43621;51.798;21.588;2023-05-23T18:25:22;21.00;;;12.50;;
57790;SDS011;43621;51.798;21.588;2023-05-23T18:29:27;18.90;;;8.00;;
57790;SDS011;43621;51.798;21.588;2023-05-23T18:33:30;13.40;;;6.40;;
57790;SDS011;43621;51.798;21.588;2023-05-23T18:37:31;7.90;;;5.60;;
57790;SDS011;43621;51.798;21.588;2023-05-23T18:41:33;7.30;;;5.30;;
57790;SDS011;43621;51.798;21.588;2023-05-23T18:45:35;9.40;;;6.00;;
57790;SDS011;43621;51.798;21.588;2023-05-23T18:49:40;7.70;;;5.60;;
57790;SDS011;43621;51.798;21.588;2023-05-23T18:53:42;8.30;;;6.20;;
57790;SDS011;43621;51.798;21.588;2023-05-23T18:57:44;8.10;;;5.70;;
57790;SDS011;43621;51.798;21.588;2023-05-23T19:01:46;7.40;;;5.50;;
57790;SDS011;43621;51.798;21.588;2023-05-23T19:05:47;7.70;;;5.00;;
57790;SDS011;43621;51.798;21.588;2023-05-23T19:09:49;9.90;;;7.70;;
57790;SDS011;43621;51.798;21.588;2023-05-23T19:13:51;11.80;;;6.40;;
57790;SDS011;43621;51.798;21.588;2023-05-23T19:17:53;10.30;;;7.10;;
57790;SDS011;43621;51.798;21.588;2023-05-23T19:21:55;20.40;;;11.00;;
57790;SDS011;43621;51.798;21.588;2023-05-23T19:25:57;17.70;;;12.20;;
57790;SDS011;43621;51.798;21.588;2023-05-23T19:29:58;15.40;;;10.70;;
57790;SDS011;43621;51.798;21.588;2023-05-23T19:34:01;12.00;;;7.50;;
57790;SDS011;43621;51.798;21.588;2023-05-23T19:38:03;11.20;;;6.30;;
57790;SDS011;43621;51.798;21.588;2023-05-23T19:42:05;14.90;;;6.50;;
57790;SDS011;43621;51.798;21.588;2023-05-23T19:46:06;11.40;;;5.50;;
57790;SDS011;43621;51.798;21.588;2023-05-23T19:50:09;6.90;;;5.10;;
57790;SDS011;43621;51.798;21.588;2023-05-23T19:54:14;14.30;;;6.40;;
57790;SDS011;43621;51.798;21.588;2023-05-23T19:58:16;19.20;;;7.90;;
57790;SDS011;43621;51.798;21.588;2023-05-23T20:02:18;16.40;;;8.00;;
57790;SDS011;43621;51.798;21.588;2023-05-23T20:06:20;12.70;;;6.60;;
57790;SDS011;43621;51.798;21.588;2023-05-23T20:10:23;30.10;;;16.40;;
57790;SDS011;43621;51.798;21.588;2023-05-23T20:14:25;16.90;;;9.70;;
57790;SDS011;43621;51.798;21.588;2023-05-23T20:18:27;14.40;;;8.20;;
57790;SDS011;43621;51.798;21.588;2023-05-23T20:22:29;13.50;;;7.20;;
57790;SDS011;43621;51.798;21.588;2023-05-23T20:26:31;11.90;;;6.80;;
57790;SDS011;43621;51.798;21.588;2023-05-23T20:30:32;13.80;;;7.00;;
57790;SDS011;43621;51.798;21.588;2023-05-23T20:34:34;10.10;;;7.40;;
57790;SDS011;43621;51.798;21.588;2023-05-23T20:38:36;8.30;;;5.90;;
57790;SDS011;43621;51.798;21.588;2023-05-23T20:42:38;9.50;;;5.30;;
57790;SDS011;43621;51.798;21.588;2023-05-23T20:46:41;8.50;;;6.30;;
57790;SDS011;43621;51.798;21.588;2023-05-23T20:50:43;7.20;;;5.50;;
57790;SDS011;43621;51.798;21.588;2023-05-23T20:54:45;8.80;;;6.10;;
57790;SDS011;43621;51.798;21.588;2023-05-23T20:58:48;8.50;;;5.50;;
57790;SDS011;43621;51.798;21.588;2023-05-23T21:02:50;9.10;;;6.70;;
57790;SDS011;43621;51.798;21.588;2023-05-23T21:06:52;9.60;;;5.60;;
57790;SDS011;43621;51.798;21.588;2023-05-23T21:10:54;11.10;;;6.50;;
57790;SDS011;43621;51.798;21.588;2023-05-23T21:14:56;11.70;;;6.40;;
57790;SDS011;43621;51.798;21.588;2023-05-23T21:18:58;12.00;;;6.90;;
57790;SDS011;43621;51.798;21.588;2023-05-23T21:22:59;11.70;;;6.40;;
57790;SDS011;43621;51.798;21.588;2023-05-23T21:27:02;11.00;;;6.60;;
57790;SDS011;43621;51.798;21.588;2023-05-23T21:31:03;7.80;;;5.80;;
57790;SDS011;43621;51.798;21.588;2023-05-23T21:35:06;10.00;;;6.70;;
57790;SDS011;43621;51.798;21.588;2023-05-23T21:39:08;11.50;;;6.50;;
57790;SDS011;43621;51.798;21.588;2023-05-23T21:43:10;9.40;;;6.50;;
57790;SDS011;43621;51.798;21.588;2023-05-23T21:47:12;14.70;;;6.60;;
57790;SDS011;43621;51.798;21.588;2023-05-23T21:51:14;10.60;;;5.90;;
57790;SDS011;43621;51.798;21.588;2023-05-23T21:55:16;11.40;;;6.10;;
57790;SDS011;43621;51.798;21.588;2023-05-23T21:59:17;10.30;;;7.00;;
57790;SDS011;43621;51.798;21.588;2023-05-23T22:03:19;10.50;;;6.30;;
57790;SDS011;43621;51.798;21.588;2023-05-23T22:07:21;9.40;;;5.90;;
57790;SDS011;43621;51.798;21.588;2023-05-23T22:11:25;11.90;;;5.60;;
57790;SDS011;43621;51.798;21.588;2023-05-23T22:15:34;9.50;;;6.40;;
57790;SDS011;43621;51.798;21.588;2023-05-23T22:19:37;7.20;;;5.70;;
57790;SDS011;43621;51.798;21.588;2023-05-23T22:23:38;13.00;;;6.90;;
57790;SDS011;43621;51.798;21.588;2023-05-23T22:27:40;11.10;;;6.10;;
57790;SDS011;43621;51.798;21.588;2023-05-23T22:31:42;10.70;;;6.10;;
57790;SDS011;43621;51.798;21.588;2023-05-23T22:35:44;7.40;;;5.60;;
57790;SDS011;43621;51.798;21.588;2023-05-23T22:39:45;10.40;;;6.30;;
57790;SDS011;43621;51.798;21.588;2023-05-23T22:43:47;10.80;;;7.00;;
57790;SDS011;43621;51.798;21.588;2023-05-23T22:47:49;11.80;;;6.00;;
57790;SDS011;43621;51.798;21.588;2023-05-23T22:51:54;12.60;;;6.30;;
57790;SDS011;43621;51.798;21.588;2023-05-23T22:55:56;8.40;;;5.60;;
57790;SDS011;43621;51.798;21.588;2023-05-23T22:59:58;11.60;;;6.50;;
57790;SDS011;43621;51.798;21.588;2023-05-23T23:04:00;10.30;;;6.20;;
57790;SDS011;43621;51.798;21.588;2023-05-23T23:08:01;9.80;;;6.40;;
57790;SDS011;43621;51.798;21.588;2023-05-23T23:12:04;8.60;;;5.90;;
57790;SDS011;43621;51.798;21.588;2023-05-23T23:16:06;8.70;;;6.00;;
57790;SDS011;43621;51.798;21.588;2023-05-23T23:20:08;8.40;;;6.00;;
57790;SDS011;43621;51.798;21.588;2023-05-23T23:24:12;8.90;;;6.00;;
57790;SDS011;43621;51.798;21.588;2023-05-23T23:28:15;9.40;;;6.30;;
57790;SDS011;43621;51.798;21.588;2023-05-23T23:32:17;9.60;;;5.90;;
57790;SDS011;43621;51.798;21.588;2023-05-23T23:36:19;9.50;;;5.80;;
57790;SDS011;43621;51.798;21.588;2023-05-23T23:40:21;10.10;;;5.60;;
57790;SDS011;43621;51.798;21.588;2023-05-23T23:44:23;9.60;;;5.90;;
57790;SDS011;43621;51.798;21.588;2023-05-23T23:48:25;11.70;;;6.10;;
57790;SDS011;43621;51.798;21.588;2023-05-23T23:52:27;9.70;;;6.00;;
57790;SDS011;43621;51.798;21.588;2023-05-23T23:56:30;8.90;;;5.70;;
